6°C Temp
4°C Dewpoint
87% Humidity
Temperature
37 KM/H
23 MPH
20 KTS
220°
South West

Wind Speed
Mostly Cloudy
Conditions
Pressure 1003.92 (hPa) - 29.65 (in)
Visibility 6.2 (mi) - 10.0 (km)

Current Conditions
EKCH
Location 55(km)
Metar :EKCH 052320Z 22020KT 9999 BKN016 06/04 Q1004 TEMPO 23022G35KT BKN012
Fri 6th December 01:20 am

Airport
  Metar Aviation API Data Provided by https://www.checkwx.com/ PHP scripts by weather34.com ©2019